Time,TemperatureF,DewpointF,PressureIn,WindDirection,WindDirectionDegrees,WindSpeedMPH,WindSpeedGustMPH,Humidity,HourlyPrecipIn,Conditions,Clouds,dailyrainin,SoftwareType,DateUTC
2013-03-12 00:02:00,20.0,16.0,29.86,West,280,9.0,14.0,84,0.00,,,0.00,,2013-03-12 05:02:00,
2013-03-12 00:12:00,20.0,16.0,29.86,West,280,9.0,14.0,84,0.00,,,0.00,,2013-03-12 05:12:00,
2013-03-12 00:22:00,20.0,16.0,29.86,West,280,9.0,14.0,84,0.00,,,0.00,,2013-03-12 05:22:00,
2013-03-12 00:32:00,19.0,15.0,29.86,WNW,283,10.0,13.0,83,0.00,,,0.00,,2013-03-12 05:32:00,
2013-03-12 00:42:00,19.0,15.0,29.86,WNW,283,10.0,13.0,83,0.00,,,0.00,,2013-03-12 05:42:00,
2013-03-12 00:52:00,20.0,16.0,29.86,WNW,292,10.0,13.0,83,0.00,,,0.00,,2013-03-12 05:52:00,
2013-03-12 01:02:00,20.0,15.0,29.86,West,281,9.0,11.0,81,0.00,,,0.00,,2013-03-12 06:02:00,
2013-03-12 01:12:00,20.0,15.0,29.86,West,281,9.0,11.0,81,0.00,,,0.00,,2013-03-12 06:12:00,
2013-03-12 01:22:00,21.0,16.0,29.86,WNW,283,9.0,13.0,79,0.00,,,0.00,,2013-03-12 06:22:00,
2013-03-12 01:32:00,21.0,16.0,29.86,WNW,283,9.0,13.0,79,0.00,,,0.00,,2013-03-12 06:32:00,
2013-03-12 01:42:00,21.0,16.0,29.86,WNW,283,9.0,13.0,79,0.00,,,0.00,,2013-03-12 06:42:00,
2013-03-12 01:52:00,21.0,15.0,29.86,WNW,283,6.0,11.0,78,0.00,,,0.00,,2013-03-12 06:52:00,
2013-03-12 02:02:00,21.0,15.0,29.86,West,276,9.0,11.0,76,0.00,,,0.00,,2013-03-12 07:02:00,
2013-03-12 02:12:00,21.0,15.0,29.86,West,276,9.0,11.0,76,0.00,,,0.00,,2013-03-12 07:12:00,
2013-03-12 02:22:00,22.0,15.0,29.86,WNW,283,7.0,12.0,75,0.00,,,0.00,,2013-03-12 07:22:00,
2013-03-12 02:32:00,22.0,16.0,29.86,West,276,7.0,10.0,78,0.00,,,0.00,,2013-03-12 07:32:00,
2013-03-12 02:42:00,22.0,16.0,29.86,West,276,7.0,10.0,78,0.00,,,0.00,,2013-03-12 07:42:00,
2013-03-12 02:52:00,22.0,16.0,29.86,West,276,7.0,10.0,78,0.00,,,0.00,,2013-03-12 07:52:00,
2013-03-12 03:02:00,21.0,16.0,29.86,West,274,8.0,11.0,80,0.00,,,0.00,,2013-03-12 08:02:00,
2013-03-12 03:12:00,21.0,16.0,29.86,West,274,8.0,11.0,80,0.00,,,0.00,,2013-03-12 08:12:00,
2013-03-12 03:22:00,21.0,16.0,29.86,West,274,8.0,11.0,80,0.00,,,0.00,,2013-03-12 08:22:00,
2013-03-12 03:33:00,22.0,17.0,29.86,West,263,7.0,11.0,82,0.00,,,0.00,,2013-03-12 08:33:00,
2013-03-12 03:42:00,22.0,17.0,29.86,West,263,7.0,11.0,82,0.00,,,0.00,,2013-03-12 08:42:00,
2013-03-12 03:52:00,22.0,17.0,29.85,West,276,5.0,9.0,82,0.00,,,0.00,,2013-03-12 08:52:00,
2013-03-12 04:03:00,22.0,18.0,29.85,West,274,6.0,9.0,83,0.00,,,0.00,,2013-03-12 09:03:00,
2013-03-12 04:12:00,22.0,18.0,29.85,West,274,6.0,9.0,83,0.00,,,0.00,,2013-03-12 09:12:00,
2013-03-12 04:22:00,22.0,18.0,29.85,West,274,6.0,9.0,83,0.00,,,0.00,,2013-03-12 09:22:00,
2013-03-12 04:32:00,22.0,18.0,29.85,West,276,4.0,7.0,84,0.00,,,0.00,,2013-03-12 09:32:00,
2013-03-12 04:42:00,22.0,18.0,29.85,West,276,4.0,7.0,84,0.00,,,0.00,,2013-03-12 09:42:00,
2013-03-12 04:52:00,22.0,18.0,29.84,WNW,287,4.0,7.0,85,0.00,,,0.00,,2013-03-12 09:52:00,
2013-03-12 05:02:00,22.0,18.0,29.85,WNW,283,7.0,10.0,85,0.00,,,0.00,,2013-03-12 10:02:00,
2013-03-12 05:12:00,22.0,18.0,29.85,WNW,283,7.0,10.0,85,0.00,,,0.00,,2013-03-12 10:12:00,
2013-03-12 05:22:00,22.0,18.0,29.85,WNW,290,7.0,10.0,85,0.00,,,0.00,,2013-03-12 10:22:00,
2013-03-12 05:32:00,22.0,18.0,29.85,WNW,290,7.0,10.0,85,0.00,,,0.00,,2013-03-12 10:32:00,
2013-03-12 05:42:00,22.0,18.0,29.85,WNW,290,7.0,10.0,85,0.00,,,0.00,,2013-03-12 10:42:00,
2013-03-12 05:52:00,23.0,19.0,29.86,WNW,288,9.0,12.0,86,0.00,,,0.00,,2013-03-12 10:52:00,
2013-03-12 06:02:00,22.0,19.0,29.86,WNW,294,7.0,9.0,87,0.00,,,0.00,,2013-03-12 11:02:00,
2013-03-12 06:12:00,22.0,19.0,29.86,WNW,294,7.0,9.0,87,0.00,,,0.00,,2013-03-12 11:12:00,
2013-03-12 06:22:00,23.0,20.0,29.86,West,278,8.0,11.0,87,0.00,,,0.00,,2013-03-12 11:22:00,
2013-03-12 06:32:00,23.0,20.0,29.87,NW,309,8.0,12.0,87,0.00,,,0.00,,2013-03-12 11:32:00,
2013-03-12 06:42:00,23.0,20.0,29.87,NW,309,8.0,12.0,87,0.00,,,0.00,,2013-03-12 11:42:00,
2013-03-12 06:52:00,22.0,19.0,29.88,WNW,302,9.0,13.0,87,0.00,,,0.00,,2013-03-12 11:52:00,
2013-03-12 07:02:00,22.0,19.0,29.88,WNW,302,9.0,13.0,87,0.00,,,0.00,,2013-03-12 12:02:00,
2013-03-12 07:12:00,22.0,19.0,29.88,WNW,302,9.0,13.0,87,0.00,,,0.00,,2013-03-12 12:12:00,
2013-03-12 07:22:00,22.0,18.0,29.88,NW,326,8.0,12.0,85,0.00,,,0.00,,2013-03-12 12:22:00,
2013-03-12 07:32:00,22.0,17.0,29.88,NW,316,12.0,16.0,82,0.00,,,0.00,,2013-03-12 12:32:00,
2013-03-12 07:42:00,22.0,17.0,29.88,NW,316,12.0,16.0,82,0.00,,,0.00,,2013-03-12 12:42:00,
2013-03-12 07:52:00,21.0,16.0,29.89,NW,319,12.0,15.0,82,0.00,,,0.00,,2013-03-12 12:52:00,
2013-03-12 08:02:00,21.0,17.0,29.89,NW,305,10.0,15.0,83,0.00,,,0.00,,2013-03-12 13:02:00,
2013-03-12 08:12:00,21.0,17.0,29.89,NW,305,10.0,15.0,83,0.00,,,0.00,,2013-03-12 13:12:00,
2013-03-12 08:22:00,21.0,17.0,29.89,NW,305,10.0,15.0,83,0.00,,,0.00,,2013-03-12 13:22:00,
2013-03-12 08:32:00,21.0,17.0,29.90,WNW,294,10.0,13.0,83,0.00,,,0.00,,2013-03-12 13:32:00,
2013-03-12 08:42:00,21.0,17.0,29.90,WNW,294,10.0,13.0,83,0.00,,,0.00,,2013-03-12 13:42:00,
2013-03-12 08:52:00,20.0,16.0,29.90,WNW,285,10.0,13.0,83,0.00,,,0.00,,2013-03-12 13:52:00,
2013-03-12 09:02:00,20.0,16.0,29.91,NW,307,11.0,14.0,83,0.00,,,0.00,,2013-03-12 14:02:00,
2013-03-12 09:12:00,20.0,16.0,29.91,NW,307,11.0,14.0,83,0.00,,,0.00,,2013-03-12 14:12:00,
2013-03-12 09:22:00,20.0,15.0,29.92,WNW,291,11.0,16.0,82,0.00,,,0.00,,2013-03-12 14:22:00,
2013-03-12 09:42:00,20.0,15.0,29.92,WNW,291,11.0,16.0,82,0.00,,,0.00,,2013-03-12 14:42:00,
2013-03-12 09:53:00,20.0,15.0,29.93,WNW,300,12.0,17.0,81,0.00,,,0.00,,2013-03-12 14:53:00,
2013-03-12 10:02:00,21.0,16.0,29.93,WNW,295,13.0,16.0,80,0.00,,,0.00,,2013-03-12 15:02:00,
2013-03-12 10:12:00,21.0,16.0,29.93,WNW,295,13.0,16.0,80,0.00,,,0.00,,2013-03-12 15:12:00,
2013-03-12 10:22:00,21.0,15.0,29.94,NW,316,15.0,19.0,78,0.00,,,0.00,,2013-03-12 15:22:00,
2013-03-12 10:32:00,22.0,16.0,29.95,NW,312,15.0,20.0,77,0.00,,,0.00,,2013-03-12 15:32:00,
2013-03-12 10:42:00,22.0,16.0,29.95,NW,312,15.0,20.0,77,0.00,,,0.00,,2013-03-12 15:42:00,
2013-03-12 10:52:00,22.0,16.0,29.95,NW,312,15.0,20.0,77,0.00,,,0.00,,2013-03-12 15:52:00,
2013-03-12 11:02:00,22.0,15.0,29.95,NW,304,15.0,21.0,75,0.00,,,0.00,,2013-03-12 16:02:00,
2013-03-12 11:12:00,22.0,15.0,29.95,NW,304,15.0,21.0,75,0.00,,,0.00,,2013-03-12 16:12:00,
2013-03-12 11:22:00,22.0,15.0,29.95,NW,315,17.0,20.0,75,0.00,,,0.00,,2013-03-12 16:22:00,
2013-03-12 11:33:00,22.0,16.0,29.96,NNW,330,16.0,23.0,76,0.00,,,0.00,,2013-03-12 16:33:00,
2013-03-12 11:43:00,22.0,16.0,29.96,NNW,330,16.0,23.0,76,0.00,,,0.00,,2013-03-12 16:43:00,
2013-03-12 11:52:00,23.0,16.0,29.97,NW,314,17.0,21.0,75,0.00,,,0.00,,2013-03-12 16:52:00,
2013-03-12 12:03:00,23.0,16.0,29.97,NW,314,17.0,21.0,75,0.00,,,0.00,,2013-03-12 17:03:00,
2013-03-12 12:12:00,23.0,16.0,29.97,NW,314,17.0,21.0,75,0.00,,,0.00,,2013-03-12 17:12:00,
2013-03-12 12:22:00,23.0,16.0,29.97,NW,316,17.0,23.0,74,0.00,,,0.00,,2013-03-12 17:22:00,
2013-03-12 12:33:00,24.0,18.0,29.98,NW,311,16.0,23.0,77,0.00,,,0.00,,2013-03-12 17:33:00,
2013-03-12 12:43:00,24.0,18.0,29.98,NW,311,16.0,23.0,77,0.00,,,0.00,,2013-03-12 17:43:00,
2013-03-12 12:53:00,23.0,17.0,29.98,WNW,291,19.0,25.0,79,0.00,,,0.00,,2013-03-12 17:53:00,
2013-03-12 13:02:00,23.0,18.0,29.98,NW,326,17.0,22.0,81,0.00,,,0.00,,2013-03-12 18:02:00,
2013-03-12 13:13:00,24.0,19.0,29.99,West,278,16.0,25.0,80,0.00,,,0.00,,2013-03-12 18:13:00,
2013-03-12 13:23:00,24.0,19.0,29.99,West,278,16.0,25.0,80,0.00,,,0.00,,2013-03-12 18:23:00,
2013-03-12 13:33:00,24.0,19.0,29.99,West,278,16.0,25.0,80,0.00,,,0.00,,2013-03-12 18:33:00,
2013-03-12 13:42:00,24.0,19.0,29.99,West,278,16.0,25.0,80,0.00,,,0.00,,2013-03-12 18:42:00,
2013-03-12 13:53:00,24.0,19.0,29.99,West,281,20.0,25.0,81,0.00,,,0.00,,2013-03-12 18:53:00,
2013-03-12 14:03:00,24.0,18.0,29.99,WNW,291,21.0,26.0,79,0.00,,,0.00,,2013-03-12 19:03:00,
2013-03-12 14:13:00,24.0,18.0,29.99,WNW,291,21.0,26.0,79,0.00,,,0.00,,2013-03-12 19:13:00,
2013-03-12 14:23:00,24.0,18.0,29.99,WNW,297,20.0,27.0,78,0.00,,,0.00,,2013-03-12 19:23:00,
2013-03-12 14:33:00,25.0,19.0,29.99,WNW,288,22.0,28.0,76,0.00,,,0.00,,2013-03-12 19:33:00,
2013-03-12 14:43:00,25.0,19.0,29.99,WNW,288,22.0,28.0,76,0.00,,,0.00,,2013-03-12 19:43:00,
2013-03-12 14:53:00,25.0,19.0,29.99,WNW,288,22.0,28.0,76,0.00,,,0.00,,2013-03-12 19:53:00,
2013-03-12 15:02:00,24.0,18.0,29.99,WNW,289,22.0,31.0,77,0.00,,,0.00,,2013-03-12 20:02:00,
2013-03-12 15:12:00,24.0,18.0,29.99,WNW,289,22.0,31.0,77,0.00,,,0.00,,2013-03-12 20:12:00,
2013-03-12 15:22:00,25.0,19.0,30.00,NW,305,19.0,27.0,76,0.00,,,0.00,,2013-03-12 20:22:00,
2013-03-12 15:32:00,25.0,19.0,30.00,NW,305,19.0,27.0,76,0.00,,,0.00,,2013-03-12 20:32:00,
2013-03-12 15:42:00,25.0,19.0,30.00,NW,305,19.0,27.0,76,0.00,,,0.00,,2013-03-12 20:42:00,
2013-03-12 15:52:00,24.0,18.0,30.01,WNW,294,22.0,32.0,78,0.00,,,0.00,,2013-03-12 20:52:00,
2013-03-12 16:02:00,24.0,18.0,30.01,WNW,294,22.0,32.0,78,0.00,,,0.00,,2013-03-12 21:02:00,
2013-03-12 16:13:00,24.0,18.0,30.01,WNW,294,22.0,32.0,78,0.00,,,0.00,,2013-03-12 21:13:00,
2013-03-12 16:22:00,25.0,18.0,30.00,NW,304,25.0,32.0,73,0.00,,,0.00,,2013-03-12 21:22:00,
2013-03-12 16:32:00,26.0,18.0,30.01,WNW,294,23.0,32.0,72,0.00,,,0.00,,2013-03-12 21:32:00,
2013-03-12 16:43:00,26.0,18.0,30.01,WNW,294,23.0,32.0,72,0.00,,,0.00,,2013-03-12 21:43:00,
2013-03-12 16:52:00,26.0,18.0,30.01,WNW,294,23.0,32.0,72,0.00,,,0.00,,2013-03-12 21:52:00,
2013-03-12 17:02:00,25.0,19.0,30.02,WNW,300,21.0,31.0,78,0.00,,,0.00,,2013-03-12 22:02:00,
2013-03-12 17:12:00,25.0,19.0,30.02,WNW,300,21.0,31.0,78,0.00,,,0.00,,2013-03-12 22:12:00,
2013-03-12 17:22:00,25.0,19.0,30.02,WNW,300,21.0,31.0,78,0.00,,,0.00,,2013-03-12 22:22:00,
2013-03-12 17:33:00,26.0,19.0,30.03,NW,309,20.0,30.0,73,0.00,,,0.00,,2013-03-12 22:33:00,
2013-03-12 17:42:00,26.0,19.0,30.03,NW,309,20.0,30.0,73,0.00,,,0.00,,2013-03-12 22:42:00,
2013-03-12 17:53:00,26.0,17.0,30.03,WNW,302,19.0,30.0,69,0.00,,,0.00,,2013-03-12 22:53:00,
2013-03-12 18:02:00,26.0,16.0,30.04,NW,311,22.0,32.0,65,0.00,,,0.00,,2013-03-12 23:02:00,
2013-03-12 18:12:00,26.0,16.0,30.04,NW,311,22.0,32.0,65,0.00,,,0.00,,2013-03-12 23:12:00,
2013-03-12 18:22:00,26.0,17.0,30.05,NW,317,21.0,31.0,68,0.00,,,0.00,,2013-03-12 23:22:00,
2013-03-12 18:34:00,26.0,17.0,30.05,NW,317,21.0,31.0,68,0.00,,,0.00,,2013-03-12 23:34:00,
2013-03-12 18:43:00,26.0,17.0,30.05,NW,317,21.0,31.0,68,0.00,,,0.00,,2013-03-12 23:43:00,
2013-03-12 18:52:00,25.0,18.0,30.05,WNW,292,18.0,29.0,73,0.00,,,0.00,,2013-03-12 23:52:00,
2013-03-12 19:02:00,25.0,17.0,30.06,WNW,301,18.0,25.0,72,0.00,,,0.00,,2013-03-13 00:02:00,
2013-03-12 19:12:00,25.0,17.0,30.06,WNW,301,18.0,25.0,72,0.00,,,0.00,,2013-03-13 00:12:00,
2013-03-12 19:23:00,24.0,17.0,30.07,NW,307,14.0,24.0,74,0.00,,,0.00,,2013-03-13 00:23:00,
2013-03-12 19:33:00,24.0,18.0,30.08,WNW,300,20.0,25.0,76,0.00,,,0.00,,2013-03-13 00:33:00,
2013-03-12 19:42:00,24.0,18.0,30.08,WNW,300,20.0,25.0,76,0.00,,,0.00,,2013-03-13 00:42:00,
2013-03-12 19:52:00,23.0,16.0,30.09,WNW,302,16.0,24.0,75,0.00,,,0.00,,2013-03-13 00:52:00,
2013-03-12 20:03:00,23.0,16.0,30.09,WNW,302,16.0,24.0,75,0.00,,,0.00,,2013-03-13 01:03:00,
2013-03-12 20:12:00,23.0,16.0,30.09,WNW,302,16.0,24.0,75,0.00,,,0.00,,2013-03-13 01:12:00,
2013-03-12 20:22:00,24.0,17.0,30.11,WNW,300,16.0,24.0,73,0.00,,,0.00,,2013-03-13 01:22:00,
2013-03-12 20:32:00,23.0,17.0,30.12,WNW,290,16.0,22.0,76,0.00,,,0.00,,2013-03-13 01:32:00,
2013-03-12 20:42:00,23.0,17.0,30.12,WNW,290,16.0,22.0,76,0.00,,,0.00,,2013-03-13 01:42:00,
2013-03-12 20:52:00,23.0,17.0,30.12,WNW,290,16.0,22.0,76,0.00,,,0.00,,2013-03-13 01:52:00,
2013-03-12 21:02:00,22.0,16.0,30.14,WNW,302,14.0,18.0,76,0.00,,,0.00,,2013-03-13 02:02:00,
2013-03-12 21:12:00,22.0,16.0,30.14,WNW,302,14.0,18.0,76,0.00,,,0.00,,2013-03-13 02:12:00,
2013-03-12 21:22:00,22.0,16.0,30.14,WNW,302,14.0,18.0,76,0.00,,,0.00,,2013-03-13 02:22:00,
2013-03-12 21:32:00,22.0,15.0,30.15,NW,305,9.0,15.0,75,0.00,,,0.00,,2013-03-13 02:32:00,
2013-03-12 21:42:00,22.0,15.0,30.15,NW,305,9.0,15.0,75,0.00,,,0.00,,2013-03-13 02:42:00,
2013-03-12 21:53:00,22.0,15.0,30.16,NW,314,9.0,19.0,73,0.00,,,0.00,,2013-03-13 02:53:00,
2013-03-12 22:02:00,22.0,15.0,30.16,NW,314,9.0,19.0,73,0.00,,,0.00,,2013-03-13 03:02:00,
2013-03-12 22:12:00,22.0,15.0,30.16,NW,314,9.0,19.0,73,0.00,,,0.00,,2013-03-13 03:12:00,
2013-03-12 22:22:00,21.0,14.0,30.17,NW,309,11.0,17.0,75,0.00,,,0.00,,2013-03-13 03:22:00,
2013-03-12 22:32:00,21.0,14.0,30.17,NW,309,11.0,17.0,75,0.00,,,0.00,,2013-03-13 03:32:00,
2013-03-12 22:42:00,21.0,14.0,30.17,NW,309,11.0,17.0,75,0.00,,,0.00,,2013-03-13 03:42:00,
2013-03-12 22:53:00,21.0,15.0,30.18,NW,307,12.0,16.0,76,0.00,,,0.00,,2013-03-13 03:53:00,
2013-03-12 23:02:00,20.0,14.0,30.18,NW,316,13.0,19.0,76,0.00,,,0.00,,2013-03-13 04:02:00,
2013-03-12 23:13:00,20.0,14.0,30.18,NW,316,13.0,19.0,76,0.00,,,0.00,,2013-03-13 04:13:00,
2013-03-12 23:22:00,20.0,14.0,30.19,NW,312,16.0,22.0,76,0.00,,,0.00,,2013-03-13 04:22:00,
2013-03-12 23:32:00,20.0,14.0,30.20,NW,311,16.0,23.0,77,0.00,,,0.00,,2013-03-13 04:32:00,
2013-03-12 23:42:00,20.0,14.0,30.20,NW,311,16.0,23.0,77,0.00,,,0.00,,2013-03-13 04:42:00,
2013-03-12 23:52:00,20.0,14.0,30.21,NW,304,15.0,21.0,78,0.00,,,0.00,,2013-03-13 04:52:00,